Cotton, Minnesota
Current Conditions -  °F | °C
As of 2:31 PM on Thursday 29 Jan 2015 (Local Time) from KEVM Reporting Station
Light Snow Light Snow  
Wind Chill:   Ceiling: 1000
Heat Index: 14°   Visibility: 4mi
Dew Point:   Wind: 13mph
Humidity: 79%   Direction: 320°NW
Pressure: 30.26"   Gusts: 23mph
Location:  47.17°N, 92.48°W
Report Text: KEVM 292031Z AUTO 32011G20KT 4SM -SN BKN010 OVC019 M10/M13 A3026 RMK AO2
Loading
Personal Weather Stations






























Interactive Weather Map New forecast layout! Learn more

10-Day Weather Forecast

Advertisements
Track Severe Weather on mobile